createdAt,value
2023-03-12T00:03:35.075Z,100028.47
2023-03-12T00:08:36.696Z,100032.16
2023-03-12T00:13:35.426Z,100024.56
2023-03-12T00:18:35.066Z,100038.06
2023-03-12T00:23:43.554Z,100032.06
2023-03-12T00:28:44.608Z,100037.44
2023-03-12T00:33:44.604Z,100038.34
2023-03-12T00:38:48.693Z,100037.78
2023-03-12T00:43:48.306Z,100029.66
2023-03-12T00:48:46.403Z,100035.25
2023-03-12T00:53:47.640Z,100041.66
2023-03-12T00:58:46.410Z,100023.97
2023-03-12T01:03:44.731Z,100020.31
2023-03-12T01:08:43.043Z,100020.84
2023-03-12T01:13:44.522Z,100014.22
2023-03-12T01:18:46.016Z,100015.19
2023-03-12T01:23:44.405Z,100017.50
2023-03-12T01:28:42.458Z,100018.59
2023-03-12T01:33:45.305Z,100020.25
2023-03-12T01:38:43.505Z,100026.50
2023-03-12T01:43:41.585Z,100030.84
2023-03-12T01:48:46.406Z,100032.47
2023-03-12T01:53:47.621Z,100039.81
2023-03-12T01:58:45.906Z,100051.50
2023-03-12T02:03:43.200Z,100059.13
2023-03-12T02:08:45.946Z,100060.06
2023-03-12T02:13:46.578Z,100072.06
2023-03-12T02:18:45.339Z,100078.28
2023-03-12T02:23:57.441Z,100088.19
2023-03-12T02:29:02.578Z,100103.13
2023-03-12T02:34:03.051Z,100097.56
2023-03-12T02:39:06.031Z,100103.41
2023-03-12T02:44:12.595Z,100116.44
2023-03-12T02:49:14.504Z,100122.16
2023-03-12T02:54:15.692Z,100138.97
2023-03-12T02:59:18.025Z,100135.84
2023-03-12T03:04:19.820Z,100148.06
2023-03-12T03:09:22.260Z,100148.28
2023-03-12T03:14:21.764Z,100156.69
2023-03-12T03:19:24.221Z,100172.41
2023-03-12T03:24:22.413Z,100182.72
2023-03-12T03:29:24.396Z,100193.75
2023-03-12T03:34:25.286Z,100202.56
2023-03-12T03:39:26.076Z,100212.66
2023-03-12T03:44:24.367Z,100214.34
2023-03-12T03:49:23.089Z,100226.06
2023-03-12T03:54:20.759Z,100241.31
2023-03-12T03:59:20.002Z,100246.88
2023-03-12T04:04:21.030Z,100245.84
2023-03-12T04:09:21.656Z,100255.66
2023-03-12T04:14:20.023Z,100261.00
2023-03-12T04:19:24.001Z,100266.50
2023-03-12T04:24:25.784Z,100266.41
2023-03-12T04:29:26.874Z,100274.13
2023-03-12T04:34:27.803Z,100292.72
2023-03-12T04:39:29.534Z,100293.19
2023-03-12T04:44:27.004Z,100297.88
2023-03-12T04:49:26.030Z,100318.72
2023-03-12T04:54:25.609Z,100330.09
2023-03-12T04:59:25.413Z,100339.34
2023-03-12T05:04:23.529Z,100341.84
2023-03-12T05:09:22.441Z,100349.13
2023-03-12T05:14:20.636Z,100362.81
2023-03-12T05:19:22.400Z,100371.97
2023-03-12T05:24:23.140Z,100384.81
2023-03-12T05:29:23.268Z,100392.94
2023-03-12T05:34:31.975Z,100398.09
2023-03-12T05:39:33.997Z,100416.34
2023-03-12T05:45:01.421Z,100421.59
2023-03-12T05:50:01.501Z,100444.00
2023-03-12T05:55:04.888Z,100462.53
2023-03-12T06:00:04.741Z,100460.66
2023-03-12T06:05:14.215Z,100467.31
2023-03-12T06:10:14.852Z,100482.44
2023-03-12T06:15:15.660Z,100498.28
2023-03-12T06:20:17.482Z,100511.75
2023-03-12T06:25:18.177Z,100522.00
2023-03-12T06:30:16.538Z,100535.13
2023-03-12T06:35:17.534Z,100543.19
2023-03-12T06:40:18.825Z,100559.41
2023-03-12T06:45:19.373Z,100568.88
2023-03-12T06:50:18.113Z,100582.13
2023-03-12T06:55:17.275Z,100566.47
2023-03-12T07:00:27.933Z,100569.41
2023-03-12T07:05:28.804Z,100565.50
2023-03-12T07:10:31.370Z,100569.41
2023-03-12T07:15:29.697Z,100589.97
2023-03-12T07:20:29.586Z,100582.84
2023-03-12T07:25:35.755Z,100592.94
2023-03-12T07:30:34.774Z,100597.16
2023-03-12T07:35:32.970Z,100611.19
2023-03-12T07:46:42.970Z,100634.06
2023-03-12T07:51:41.572Z,100626.88
2023-03-12T07:56:40.372Z,100638.22
2023-03-12T08:01:38.959Z,100649.56
2023-03-12T08:06:39.258Z,100657.91
2023-03-12T08:11:38.586Z,100660.69
2023-03-12T08:16:39.057Z,100680.19
2023-03-12T08:21:37.409Z,100686.91
2023-03-12T08:26:36.051Z,100698.78
2023-03-12T08:31:34.849Z,100715.56
2023-03-12T08:36:32.988Z,100721.88
2023-03-12T08:41:31.922Z,100720.94
2023-03-12T08:52:26.183Z,100729.22
2023-03-12T08:57:25.382Z,100730.94
2023-03-12T09:02:24.172Z,100725.59
2023-03-12T09:07:22.719Z,100736.84
2023-03-12T09:12:23.636Z,100739.88
2023-03-12T09:17:22.005Z,100741.34
2023-03-12T09:22:20.717Z,100742.97
2023-03-12T09:27:17.916Z,100746.41
2023-03-12T09:32:17.638Z,100749.00
2023-03-12T09:37:14.845Z,100743.47
2023-03-12T09:48:21.018Z,100755.94
2023-03-12T09:53:37.935Z,100755.94
2023-03-12T09:58:37.809Z,100773.47
2023-03-12T10:03:54.810Z,100779.41
2023-03-12T10:09:24.953Z,100780.75
2023-03-12T10:14:51.054Z,100801.78
2023-03-12T10:19:49.116Z,100798.13
2023-03-12T10:24:51.461Z,100803.28
2023-03-12T10:29:53.958Z,100800.09
2023-03-12T10:35:03.460Z,100805.81
2023-03-12T10:40:06.104Z,100804.78
2023-03-12T10:45:09.729Z,100807.09
2023-03-12T10:50:18.360Z,100801.53
2023-03-12T10:55:23.588Z,100798.47
2023-03-12T11:00:22.945Z,100800.09
2023-03-12T11:05:21.997Z,100797.97
2023-03-12T11:10:22.874Z,100796.41
2023-03-12T11:15:22.146Z,100804.13
2023-03-12T11:20:23.347Z,100799.69
2023-03-12T11:25:25.552Z,100803.28
2023-03-12T11:30:48.229Z,100796.41
2023-03-12T11:36:07.234Z,100795.31
2023-03-12T11:41:11.446Z,100798.91
2023-03-12T11:46:28.526Z,100787.44
2023-03-12T11:51:32.372Z,100782.50
2023-03-12T11:56:30.708Z,100783.38
2023-03-12T12:01:39.575Z,100781.69
2023-03-12T12:07:11.597Z,100793.13
2023-03-12T12:12:12.103Z,100791.81
2023-03-12T12:17:13.001Z,100793.28
2023-03-12T12:22:14.633Z,100791.81
2023-03-12T12:27:22.298Z,100788.88
2023-03-12T12:32:39.435Z,100790.84
2023-03-12T12:37:45.224Z,100798.16
2023-03-12T12:42:52.664Z,100815.38
2023-03-12T12:47:57.795Z,100808.03
2023-03-12T12:53:00.003Z,100826.78
2023-03-12T12:58:06.371Z,100829.38
2023-03-12T13:03:06.462Z,100823.53
2023-03-12T13:08:05.017Z,100827.78
2023-03-12T13:13:10.974Z,100827.94
2023-03-12T13:18:18.991Z,100828.69
2023-03-12T13:23:21.919Z,100832.78
2023-03-12T13:28:56.698Z,100836.88
2023-03-12T13:34:11.390Z,100845.72
2023-03-12T13:39:15.373Z,100851.78
2023-03-12T13:44:34.482Z,100855.97
2023-03-12T13:49:52.401Z,100863.78
2023-03-12T13:55:02.642Z,100857.94
2023-03-12T14:00:12.127Z,100865.09
2023-03-12T14:05:12.244Z,100863.22
2023-03-12T14:10:14.513Z,100871.13
2023-03-12T14:15:15.982Z,100864.25
2023-03-12T14:20:21.711Z,100870.94
2023-03-12T14:25:36.787Z,100873.69
2023-03-12T14:30:44.221Z,100865.31
2023-03-12T14:35:49.214Z,100874.97
2023-03-12T14:41:14.208Z,100879.78
2023-03-12T14:46:25.777Z,100886.03
2023-03-12T14:51:26.263Z,100885.47
2023-03-12T14:56:25.839Z,100894.69
2023-03-12T15:01:28.104Z,100907.31
2023-03-12T15:06:33.942Z,100906.66
2023-03-12T15:11:32.817Z,100911.44
2023-03-12T15:16:37.912Z,100914.50
2023-03-12T15:21:42.330Z,100925.25
2023-03-12T15:26:41.686Z,100932.88
2023-03-12T15:31:43.428Z,100948.63
2023-03-12T15:37:00.371Z,100949.78
2023-03-12T15:42:11.510Z,100959.25
2023-03-12T15:47:14.394Z,100965.94
2023-03-12T15:52:22.343Z,100987.47
2023-03-12T15:57:22.171Z,100987.13
2023-03-12T16:02:35.148Z,100997.41
2023-03-12T16:07:33.477Z,101016.16
2023-03-12T16:12:34.197Z,101014.38
2023-03-12T16:17:33.066Z,101022.66
2023-03-12T16:22:32.943Z,101029.44
2023-03-12T16:27:32.749Z,101044.09
2023-03-12T16:32:32.318Z,101052.56
2023-03-12T16:37:34.547Z,101064.50
2023-03-12T16:42:37.938Z,101065.91
2023-03-12T16:47:49.576Z,101084.00
2023-03-12T16:52:51.252Z,101098.00
2023-03-12T16:57:54.767Z,101099.81
2023-03-12T17:02:57.819Z,101108.09
2023-03-12T17:07:58.373Z,101119.66
2023-03-12T17:12:56.834Z,101128.22
2023-03-12T17:17:57.027Z,101140.06
2023-03-12T17:22:55.265Z,101147.38
2023-03-12T17:27:57.614Z,101158.38
2023-03-12T17:33:06.866Z,101167.94
2023-03-12T17:38:17.972Z,101181.69
2023-03-12T17:43:18.523Z,101179.66
2023-03-12T17:48:19.564Z,101184.22
2023-03-12T17:53:17.792Z,101187.34
2023-03-12T17:58:16.373Z,101190.41
2023-03-12T18:03:17.706Z,101198.78
2023-03-12T18:08:21.574Z,101210.66
2023-03-12T18:13:24.890Z,101210.13
2023-03-12T18:18:22.460Z,101221.88
2023-03-12T18:23:20.455Z,101226.28
2023-03-12T18:28:18.827Z,101235.97
2023-03-12T18:33:17.568Z,101229.13
2023-03-12T18:38:18.109Z,101251.41
2023-03-12T18:43:21.734Z,101253.81
2023-03-12T18:48:21.130Z,101258.66
2023-03-12T18:53:20.931Z,101258.53
2023-03-12T18:58:20.126Z,101271.81
2023-03-12T19:03:19.219Z,101278.31
2023-03-12T19:08:20.897Z,101275.22
2023-03-12T19:13:20.657Z,101288.25
2023-03-12T19:18:21.842Z,101286.91
2023-03-12T19:23:22.549Z,101297.66
2023-03-12T19:28:22.474Z,101294.91
2023-03-12T19:33:20.590Z,101308.00
2023-03-12T19:38:20.860Z,101321.53
2023-03-12T19:43:23.457Z,101329.84
2023-03-12T19:48:30.724Z,101330.75
2023-03-12T19:53:32.409Z,101345.50
2023-03-12T19:58:32.522Z,101346.16
2023-03-12T20:03:43.122Z,101357.41
2023-03-12T20:08:49.280Z,101357.34
2023-03-12T20:13:47.523Z,101361.06
2023-03-12T20:18:48.499Z,101379.81
2023-03-12T20:23:47.755Z,101381.66
2023-03-12T20:28:51.996Z,101390.16
2023-03-12T20:33:50.331Z,101399.38
2023-03-12T20:38:48.844Z,101399.81
2023-03-12T20:43:46.552Z,101408.41
2023-03-12T20:48:47.780Z,101418.22
2023-03-12T20:53:46.312Z,101423.50
2023-03-12T20:58:43.898Z,101420.34
2023-03-12T21:03:43.673Z,101425.88
2023-03-12T21:08:44.125Z,101421.16
2023-03-12T21:13:41.731Z,101430.28
2023-03-12T21:18:41.655Z,101426.00
2023-03-12T21:23:42.903Z,101435.59
2023-03-12T21:28:41.343Z,101442.06
2023-03-12T21:33:42.221Z,101441.94
2023-03-12T21:38:55.623Z,101450.66
2023-03-12T21:43:52.995Z,101444.22
2023-03-12T21:48:55.386Z,101441.94
2023-03-12T21:53:54.476Z,101448.59
2023-03-12T21:58:53.715Z,101453.22
2023-03-12T22:04:17.533Z,101462.81
2023-03-12T22:09:20.278Z,101462.72
2023-03-12T22:14:22.356Z,101465.06
2023-03-12T22:19:25.397Z,101473.94
2023-03-12T22:24:30.055Z,101475.84
2023-03-12T22:29:29.914Z,101485.03
2023-03-12T22:34:29.652Z,101489.16
2023-03-12T22:39:30.769Z,101490.13
2023-03-12T22:44:29.403Z,101491.88
2023-03-12T22:49:27.142Z,101494.16
2023-03-12T22:54:29.220Z,101502.22
2023-03-12T22:59:32.355Z,101510.22
2023-03-12T23:04:30.124Z,101527.00
2023-03-12T23:09:31.340Z,101520.91
2023-03-12T23:14:33.630Z,101519.88
2023-03-12T23:19:34.816Z,101516.47
2023-03-12T23:24:33.723Z,101526.19
2023-03-12T23:29:36.389Z,101535.81
2023-03-12T23:34:35.310Z,101535.16
2023-03-12T23:39:45.040Z,101545.41
2023-03-12T23:44:58.192Z,101549.19
2023-03-12T23:50:01.306Z,101548.03
2023-03-12T23:54:59.400Z,101551.28
